Terminal Aerodrome Forecast
Issued by NWS

Home | Current Version | Previous Version | Text Only | Print | Product List | Glossary On
Versions: 1 2 3 4 5 6 7 8 9 10 11 12 13 14 15
000
FTUS42 KGSP 181125
TAFAND
TAF
KAND 181125Z 1812/1912 24004KT P6SM FEW250
     FM181400 25008KT P6SM FEW250
     FM181900 25011KT P6SM VCTS FEW050CB
     FM182100 25012KT P6SM SCT060 PROB30 1821/1824 4SM -TSRA
      BKN060CB
     FM190000 25008KT P6SM FEW060
     FM190300 26004KT P6SM FEW200=

USA.gov is the U.S. government's official web portal to all federal, state and local government web resources and services.